Time;durP1;ratioP1;P1;durP2;ratioP2;P2;SDS_P1;SDS_P2;PMS_P1;PMS_P2;Temp;Humidity;BMP_temperature;BMP_pressure;BME280_temperature;BME280_humidity;BME280_pressure;Samples;Min_cycle;Max_cycle;Signal;HPM_P1;HPM_P2
2021/07/28 00:01:37;;;;;;;19.90;14.70;;;;;;;20.55;68.71;100138.23;128605;1093;22442;-75
2021/07/28 00:04:07;;;;;;;16.53;14.93;;;;;;;20.52;69.50;100127.97;128629;1095;22386;-75
2021/07/28 00:06:37;;;;;;;17.95;14.83;;;;;;;20.54;69.48;100128.56;128600;1093;22384;-74
2021/07/28 00:09:06;;;;;;;16.55;13.93;;;;;;;20.56;69.53;100126.44;128551;1095;22361;-75
2021/07/28 00:11:36;;;;;;;23.83;16.90;;;;;;;20.56;69.47;100127.27;128567;1095;22370;-75
2021/07/28 00:14:06;;;;;;;19.18;15.00;;;;;;;20.50;68.89;100122.02;128204;1098;22366;-75
2021/07/28 00:16:36;;;;;;;17.18;13.88;;;;;;;20.38;69.16;100122.04;128194;1098;24496;-75
2021/07/28 00:24:30;;;;;;;14.15;12.58;;;;;;;20.06;70.32;100106.38;128245;1098;22366;-75
2021/07/28 00:26:59;;;;;;;14.05;12.73;;;;;;;19.99;70.40;100111.03;128206;1098;22337;-75
2021/07/28 00:29:30;;;;;;;16.48;12.83;;;;;;;19.98;71.04;100109.41;128193;1098;22379;-75
2021/07/28 00:32:00;;;;;;;17.70;13.15;;;;;;;19.99;70.96;100108.35;128348;1093;22350;-75
2021/07/28 00:34:29;;;;;;;16.38;14.68;;;;;;;20.00;71.43;100098.47;128563;1095;22350;-75
2021/07/28 00:36:59;;;;;;;16.28;14.33;;;;;;;20.02;71.20;100107.08;128629;1093;24778;-76
2021/07/28 00:39:29;;;;;;;15.90;13.43;;;;;;;20.08;71.23;100098.09;128584;1095;22375;-76
2021/07/28 00:41:58;;;;;;;16.38;14.23;;;;;;;20.12;71.18;100093.88;128581;1095;22966;-76
2021/07/28 00:44:28;;;;;;;15.88;14.13;;;;;;;20.16;70.85;100097.73;128186;1095;22378;-75
2021/07/28 00:46:57;;;;;;;16.25;14.43;;;;;;;20.10;70.69;100098.68;128190;1098;24484;-76
2021/07/28 00:49:27;;;;;;;16.33;14.53;;;;;;;20.04;70.51;100100.43;128253;1095;22685;-75
2021/07/28 00:52:02;;;;;;;17.83;13.95;;;;;;;19.98;70.45;100101.37;128213;1095;22382;-75
2021/07/28 00:54:32;;;;;;;17.43;14.35;;;;;;;19.93;70.87;100095.91;128226;1095;22359;-75
2021/07/28 00:57:02;;;;;;;16.45;14.73;;;;;;;19.94;70.77;100094.85;128253;1095;24252;-76
2021/07/28 00:59:32;;;;;;;18.25;14.50;;;;;;;19.94;70.69;100092.98;128227;1095;25044;-76
2021/07/28 01:02:02;;;;;;;17.58;14.50;;;;;;;19.99;70.65;100089.59;128227;1095;25010;-75
2021/07/28 01:04:32;;;;;;;17.33;14.60;;;;;;;20.05;70.75;100094.01;128600;1095;22425;-75
2021/07/28 01:07:02;;;;;;;15.95;14.23;;;;;;;20.09;70.81;100086.30;128316;1094;22356;-75
2021/07/28 01:09:31;;;;;;;14.90;13.38;;;;;;;20.13;70.00;100090.98;128259;1095;22384;-75
2021/07/28 01:12:04;;;;;;;15.08;13.65;;;;;;;20.16;70.09;100095.87;128313;1095;24246;-75
2021/07/28 01:14:34;;;;;;;17.30;14.00;;;;;;;20.13;69.79;100093.66;128292;1095;22362;-75
2021/07/28 01:17:04;;;;;;;18.40;16.58;;;;;;;20.11;69.89;100095.75;128574;1095;22368;-76
2021/07/28 01:19:39;;;;;;;20.25;15.23;;;;;;;20.17;69.98;100084.08;128550;1095;24249;-76
2021/07/28 01:22:09;;;;;;;18.40;16.45;;;;;;;20.21;69.96;100079.05;128558;1095;22353;-75
2021/07/28 01:24:38;;;;;;;18.83;16.23;;;;;;;20.25;69.65;100087.44;128253;1095;24505;-75
2021/07/28 01:27:09;;;;;;;13.95;12.63;;;;;;;20.26;69.89;100081.01;128558;1095;22368;-74
2021/07/28 01:29:38;;;;;;;14.93;13.40;;;;;;;20.25;69.58;100080.20;128567;1095;22341;-75
2021/07/28 01:32:08;;;;;;;13.70;12.30;;;;;;;20.24;69.58;100083.13;128220;1095;22369;-75
2021/07/28 01:34:38;;;;;;;15.40;13.30;;;;;;;20.24;69.93;100072.41;128197;1098;22472;-75
2021/07/28 01:37:10;;;;;;;14.93;13.33;;;;;;;20.24;69.71;100072.41;128200;1098;23729;-75
2021/07/28 01:39:40;;;;;;;14.38;12.73;;;;;;;20.25;69.59;100074.84;128207;1095;22359;-74
2021/07/28 01:42:10;;;;;;;14.48;13.08;;;;;;;20.26;69.74;100073.80;128166;1098;22402;-74
2021/07/28 01:44:40;;;;;;;15.95;12.88;;;;;;;20.28;69.77;100071.68;128181;1098;23187;-75
2021/07/28 01:47:10;;;;;;;15.45;13.93;;;;;;;20.27;69.90;100074.61;128224;1095;24302;-76
2021/07/28 01:49:40;;;;;;;16.63;13.73;;;;;;;20.24;69.56;100070.53;128312;1095;22241;-76
2021/07/28 01:52:10;;;;;;;18.10;14.48;;;;;;;20.18;69.65;100066.92;128657;1095;22363;-75
2021/07/28 01:54:40;;;;;;;16.30;13.43;;;;;;;20.09;69.69;100062.17;128644;1095;22363;-76
2021/07/28 01:57:09;;;;;;;16.48;14.75;;;;;;;20.01;69.66;100066.05;128572;1095;23116;-76
2021/07/28 01:59:40;;;;;;;21.25;13.75;;;;;;;19.95;69.98;100073.16;128301;1095;25075;-76
2021/07/28 02:02:10;;;;;;;16.65;13.15;;;;;;;19.85;70.10;100069.45;128323;1095;24174;-76
2021/07/28 02:04:40;;;;;;;14.73;13.35;;;;;;;19.77;70.42;100069.83;128595;1095;22343;-76
2021/07/28 02:07:09;;;;;;;18.75;13.63;;;;;;;19.70;70.86;100073.44;128301;1095;22346;-75
2021/07/28 02:09:39;;;;;;;15.28;13.65;;;;;;;19.63;70.90;100069.23;128627;1095;22369;-75
2021/07/28 02:12:09;;;;;;;16.00;13.30;;;;;;;19.57;71.48;100072.84;128628;1093;22350;-75
2021/07/28 02:14:39;;;;;;;18.83;14.13;;;;;;;19.49;71.83;100064.11;128563;1095;24512;-75
2021/07/28 02:17:08;;;;;;;19.35;14.48;;;;;;;19.42;71.90;100060.70;128584;1095;22369;-75
2021/07/28 02:19:38;;;;;;;16.10;14.15;;;;;;;19.39;72.15;100071.07;128418;1095;22375;-75
2021/07/28 02:22:08;;;;;;;15.15;13.55;;;;;;;19.41;72.59;100055.59;128564;1095;22347;-75
2021/07/28 02:24:40;;;;;;;15.95;13.55;;;;;;;19.44;72.70;100057.81;128598;1095;22370;-74
2021/07/28 02:27:10;;;;;;;16.28;12.38;;;;;;;19.43;72.56;100058.87;128584;1095;24512;-75
2021/07/28 02:29:40;;;;;;;16.75;15.08;;;;;;;19.42;72.46;100059.89;128548;1094;24496;-76
2021/07/28 02:32:09;;;;;;;17.73;13.30;;;;;;;19.44;72.49;100058.63;128618;1095;22363;-76
2021/07/28 02:34:39;;;;;;;17.55;15.78;;;;;;;19.47;72.80;100060.84;128551;1095;23295;-76
2021/07/28 02:37:08;;;;;;;17.38;15.50;;;;;;;19.49;72.76;100060.59;128640;1094;22362;-76
2021/07/28 02:39:38;;;;;;;16.38;13.95;;;;;;;19.50;72.57;100057.69;128555;1095;22343;-76
2021/07/28 02:42:07;;;;;;;15.35;13.88;;;;;;;19.48;72.44;100054.42;128592;1095;24240;-76
2021/07/28 02:44:37;;;;;;;15.95;14.40;;;;;;;19.44;72.08;100050.58;128591;1094;22344;-76
2021/07/28 02:47:06;;;;;;;16.23;14.38;;;;;;;19.42;72.42;100060.70;128602;1095;22349;-76
2021/07/28 02:49:37;;;;;;;17.38;13.88;;;;;;;19.40;72.25;100059.33;128661;1093;22342;-76
2021/07/28 02:52:07;;;;;;;18.45;15.13;;;;;;;19.37;72.58;100060.61;128664;1093;23102;-75
2021/07/28 02:54:37;;;;;;;16.83;13.68;;;;;;;19.38;72.76;100058.73;128339;1095;22559;-76
2021/07/28 02:57:06;;;;;;;17.23;13.80;;;;;;;19.42;73.08;100063.38;128172;1097;22352;-77
2021/07/28 02:59:36;;;;;;;17.25;14.03;;;;;;;19.45;72.64;100072.83;128201;1097;22379;-75
2021/07/28 03:02:06;;;;;;;18.98;15.15;;;;;;;19.41;72.29;100074.34;128203;1098;25015;-75
2021/07/28 03:04:35;;;;;;;19.88;15.78;;;;;;;19.41;72.23;100079.70;128141;1096;22347;-75
2021/07/28 03:07:05;;;;;;;19.70;14.00;;;;;;;19.44;72.87;100082.73;128146;1098;22404;-76
2021/07/28 03:09:35;;;;;;;14.88;13.13;;;;;;;19.52;72.71;100087.73;128150;1098;22707;-77
2021/07/28 03:12:05;;;;;;;16.65;12.90;;;;;;;19.57;72.81;100094.27;128169;1098;25088;-76
2021/07/28 03:14:34;;;;;;;19.38;14.80;;;;;;;19.61;73.12;100087.39;128151;1095;22974;-74
2021/07/28 03:17:04;;;;;;;15.73;14.08;;;;;;;19.60;72.40;100083.91;128280;1095;22337;-76
2021/07/28 03:19:34;;;;;;;18.50;16.08;;;;;;;19.61;72.22;100085.52;128613;1093;24032;-75
2021/07/28 03:22:04;;;;;;;16.08;14.60;;;;;;;19.60;72.30;100069.70;128616;1093;22338;-76
2021/07/28 03:24:33;;;;;;;16.93;15.13;;;;;;;19.61;72.48;100065.95;128628;1094;22369;-76
2021/07/28 03:27:03;;;;;;;14.88;13.45;;;;;;;19.66;72.33;100066.92;128471;1095;22356;-76
2021/07/28 03:29:33;;;;;;;18.65;15.98;;;;;;;19.71;72.72;100075.06;128534;1093;22481;-76
2021/07/28 03:32:03;;;;;;;16.10;14.48;;;;;;;19.71;72.28;100076.93;128578;1095;24508;-76
2021/07/28 03:34:33;;;;;;;17.03;15.33;;;;;;;19.69;71.91;100076.34;128306;1095;22468;-75
2021/07/28 03:37:03;;;;;;;18.35;16.55;;;;;;;19.68;72.25;100072.03;128426;1094;22337;-76
2021/07/28 03:39:33;;;;;;;18.45;16.53;;;;;;;19.69;72.68;100058.42;128558;1094;24229;-76
2021/07/28 03:42:03;;;;;;;17.40;15.55;;;;;;;19.70;72.10;100065.40;128595;1095;22340;-76
2021/07/28 03:44:34;;;;;;;18.63;16.65;;;;;;;19.71;72.20;100060.85;128187;1095;22359;-76
2021/07/28 03:47:04;;;;;;;19.68;17.60;;;;;;;19.69;71.79;100060.26;128167;1095;22345;-76
2021/07/28 03:49:33;;;;;;;18.08;16.13;;;;;;;19.67;72.16;100057.02;128196;1095;23005;-75
2021/07/28 03:52:04;;;;;;;18.83;16.90;;;;;;;19.68;72.44;100059.45;128226;1095;24486;-75
2021/07/28 03:54:33;;;;;;;19.15;16.23;;;;;;;19.70;72.21;100056.55;128215;1093;22359;-75
2021/07/28 03:57:03;;;;;;;18.50;16.45;;;;;;;19.74;72.69;100049.66;128182;1095;24513;-75
2021/07/28 03:59:33;;;;;;;16.85;15.23;;;;;;;19.75;71.98;100045.92;128168;1095;22353;-75
2021/07/28 04:02:02;;;;;;;17.55;15.75;;;;;;;19.76;71.88;100047.58;128245;1095;24240;-74
2021/07/28 04:04:32;;;;;;;16.73;14.95;;;;;;;19.78;71.81;100037.41;128605;1095;22349;-75
2021/07/28 04:07:02;;;;;;;19.38;15.20;;;;;;;19.79;71.79;100038.23;128530;1095;23115;-74
2021/07/28 04:09:32;;;;;;;19.10;14.85;;;;;;;19.82;71.54;100035.08;128581;1095;22364;-75
2021/07/28 04:12:02;;;;;;;18.15;16.23;;;;;;;19.88;71.98;100034.13;128606;1093;22347;-75
2021/07/28 04:14:31;;;;;;;17.53;15.73;;;;;;;19.94;71.44;100027.83;128554;1095;22363;-74
2021/07/28 04:17:01;;;;;;;19.08;15.63;;;;;;;19.97;71.47;100035.41;128578;1093;22346;-74
2021/07/28 04:19:30;;;;;;;17.55;15.83;;;;;;;20.02;71.25;100032.00;128157;1097;25017;-74
2021/07/28 04:22:00;;;;;;;17.35;15.58;;;;;;;20.10;71.29;100027.09;128171;1096;22376;-74
2021/07/28 04:24:30;;;;;;;22.38;15.30;;;;;;;20.18;71.62;100025.89;128142;1098;23258;-75
2021/07/28 04:26:59;;;;;;;19.88;17.08;;;;;;;20.27;71.10;100027.14;128155;1096;22416;-75
2021/07/28 04:29:29;;;;;;;17.38;15.50;;;;;;;20.36;70.43;100022.19;128113;1098;22450;-75
2021/07/28 04:31:58;;;;;;;17.85;15.43;;;;;;;20.44;71.38;100025.31;128246;1098;23299;-75
2021/07/28 04:34:28;;;;;;;18.15;15.88;;;;;;;20.54;70.52;100019.34;128179;1096;23231;-75
2021/07/28 04:36:57;;;;;;;17.98;16.08;;;;;;;20.66;70.32;100020.11;128204;1095;22353;-75
2021/07/28 04:39:27;;;;;;;20.27;15.40;;;;;;;20.75;69.69;100019.70;128557;1093;22353;-75
2021/07/28 04:41:57;;;;;;;16.65;14.88;;;;;;;20.87;69.61;100018.58;128538;1095;25015;-74
2021/07/28 04:44:26;;;;;;;19.03;14.78;;;;;;;20.96;69.02;100018.99;128572;1095;24243;-74
2021/07/28 04:46:56;;;;;;;19.80;15.53;;;;;;;21.04;68.76;100021.26;128567;1093;22350;-74
2021/07/28 04:49:26;;;;;;;18.38;16.45;;;;;;;21.14;68.48;100018.73;128642;1094;24233;-74
2021/07/28 04:51:55;;;;;;;19.80;15.68;;;;;;;21.26;68.19;100023.18;128558;1094;22361;-74
2021/07/28 04:54:25;;;;;;;16.38;14.88;;;;;;;21.35;67.55;100019.86;128653;1094;22644;-75
2021/07/28 04:56:54;;;;;;;17.78;15.50;;;;;;;21.50;67.54;100026.53;128567;1095;24523;-74
2021/07/28 04:59:24;;;;;;;17.20;15.03;;;;;;;21.57;66.38;100022.60;128544;1094;22350;-74
2021/07/28 05:01:53;;;;;;;19.73;14.68;;;;;;;21.65;66.35;100020.54;128590;1095;22880;-74
2021/07/28 05:04:23;;;;;;;15.20;13.60;;;;;;;21.75;65.85;100015.30;128579;1095;22348;-75
2021/07/28 05:06:53;;;;;;;17.03;15.05;;;;;;;21.85;65.17;100020.80;128660;1093;22438;-75
2021/07/28 05:09:23;;;;;;;16.00;13.48;;;;;;;21.89;64.38;100021.91;128582;1095;22362;-74
2021/07/28 05:11:52;;;;;;;16.08;13.63;;;;;;;21.91;64.56;100011.73;128563;1093;24994;-74
2021/07/28 05:14:22;;;;;;;15.38;13.58;;;;;;;22.02;64.51;100008.09;128139;1095;22808;-73
2021/07/28 05:16:52;;;;;;;17.10;14.20;;;;;;;22.23;63.94;100009.18;128138;1095;24984;-76
2021/07/28 05:19:22;;;;;;;15.03;13.48;;;;;;;22.46;63.63;100010.77;127970;1098;22393;-75
2021/07/28 05:21:51;;;;;;;18.05;13.43;;;;;;;22.73;63.20;100015.31;127949;1098;22346;-75
2021/07/28 05:24:21;;;;;;;18.15;13.68;;;;;;;23.03;62.26;100011.27;127927;1098;22802;-75
2021/07/28 05:26:51;;;;;;;16.83;13.18;;;;;;;23.30;61.46;100017.38;127946;1098;22372;-76
2021/07/28 05:29:20;;;;;;;16.58;12.85;;;;;;;23.55;60.91;100015.89;127924;1098;24230;-75
2021/07/28 05:31:50;;;;;;;14.65;13.15;;;;;;;23.79;60.46;100014.45;127990;1098;22353;-76
2021/07/28 05:34:20;;;;;;;12.53;11.25;;;;;;;24.04;59.16;100015.61;128226;1098;23946;-75
2021/07/28 05:36:52;;;;;;;14.95;11.88;;;;;;;24.32;58.73;100017.83;128199;1095;22339;-75
2021/07/28 05:39:21;;;;;;;15.03;11.88;;;;;;;24.58;57.67;100013.31;128623;1095;25012;-75
2021/07/28 05:41:51;;;;;;;14.35;10.93;;;;;;;24.84;57.15;100019.55;128569;1095;24489;-76
2021/07/28 05:44:20;;;;;;;16.35;11.20;;;;;;;25.13;56.35;100020.92;128556;1095;22343;-76
2021/07/28 05:46:50;;;;;;;14.33;10.60;;;;;;;25.44;55.46;100022.48;128639;1093;25440;-77
2021/07/28 05:49:20;;;;;;;11.10;10.00;;;;;;;25.77;55.42;100018.31;128561;1095;22350;-74
2021/07/28 05:51:49;;;;;;;16.28;14.58;;;;;;;26.03;53.60;100015.53;128624;1095;23299;-73
2021/07/28 05:54:19;;;;;;;12.18;11.05;;;;;;;26.24;53.58;100002.69;128489;1095;22353;-75
2021/07/28 05:56:50;;;;;;;16.00;11.00;;;;;;;26.49;52.95;100007.14;128558;1095;24962;-80
2021/07/28 05:59:20;;;;;;;15.30;10.70;;;;;;;26.65;52.30;100005.94;128312;1095;22344;-75
2021/07/28 06:01:50;;;;;;;13.75;10.60;;;;;;;26.86;51.75;99993.05;128323;1095;22153;-78
2021/07/28 06:04:20;;;;;;;12.10;9.90;;;;;;;27.09;51.30;99996.08;128182;1095;22332;-76
2021/07/28 06:06:49;;;;;;;13.28;10.40;;;;;;;27.33;50.58;100001.58;128215;1095;25018;-77
2021/07/28 06:09:19;;;;;;;11.63;9.90;;;;;;;27.57;50.16;99999.67;128277;1095;22338;-78
2021/07/28 06:11:49;;;;;;;11.70;10.35;;;;;;;27.84;49.80;100003.72;128255;1095;22340;-77
2021/07/28 06:14:18;;;;;;;13.73;11.13;;;;;;;27.97;48.91;100002.20;128234;1095;22361;-75
2021/07/28 06:16:48;;;;;;;16.48;11.58;;;;;;;28.08;48.68;100001.76;128186;1095;22333;-74
2021/07/28 06:19:18;;;;;;;15.95;14.48;;;;;;;28.13;48.26;100001.70;128221;1095;22382;-77
2021/07/28 06:21:47;;;;;;;10.53;9.63;;;;;;;28.22;48.08;100001.03;128246;1095;22381;-76
2021/07/28 06:24:17;;;;;;;16.08;10.45;;;;;;;28.30;47.54;100001.19;128568;1095;23110;-75
2021/07/28 06:26:47;;;;;;;11.15;10.05;;;;;;;28.41;47.47;99993.72;128263;1095;24473;-79
2021/07/28 06:29:17;;;;;;;11.25;10.18;;;;;;;28.50;46.95;99989.23;128649;1093;22372;-75
2021/07/28 06:31:46;;;;;;;13.70;10.65;;;;;;;28.53;46.62;100001.42;128593;1095;22343;-76
2021/07/28 06:34:16;;;;;;;14.63;10.50;;;;;;;28.37;46.19;99995.38;128588;1095;22381;-76
2021/07/28 06:36:45;;;;;;;11.10;10.03;;;;;;;28.18;47.04;99998.09;128180;1096;24532;-75
2021/07/28 06:39:15;;;;;;;12.05;9.83;;;;;;;27.94;46.80;100000.06;128141;1098;22391;-74
2021/07/28 06:41:45;;;;;;;11.45;10.38;;;;;;;27.75;47.19;100000.00;128201;1095;22381;-74
2021/07/28 06:44:14;;;;;;;13.18;11.10;;;;;;;27.69;47.67;99994.65;128165;1095;23189;-74
2021/07/28 06:46:44;;;;;;;13.70;11.63;;;;;;;27.77;47.67;100000.56;128220;1095;22398;-75
2021/07/28 06:49:14;;;;;;;13.07;10.43;;;;;;;27.95;47.77;99997.05;128237;1095;24515;-75
2021/07/28 06:51:44;;;;;;;12.88;9.90;;;;;;;28.17;47.28;99999.20;128168;1095;22367;-78
2021/07/28 06:54:14;;;;;;;;;;;;;;;28.30;47.17;99998.47;127983;1098;24512;-76
2021/07/28 06:56:43;;;;;;;14.05;10.30;;;;;;;28.45;46.69;99992.02;128183;1097;22981;-75
2021/07/28 06:59:13;;;;;;;12.95;10.05;;;;;;;28.63;46.41;99990.39;128170;1098;24517;-74
2021/07/28 07:01:44;;;;;;;10.83;9.70;;;;;;;28.75;46.13;99990.71;128166;1096;23897;-74
2021/07/28 07:04:14;;;;;;;12.25;9.50;;;;;;;28.89;45.78;99995.38;128211;1097;22376;-74
2021/07/28 07:06:44;;;;;;;11.88;10.63;;;;;;;29.10;45.90;99991.24;127915;1097;22368;-75
2021/07/28 07:09:14;;;;;;;12.98;10.63;;;;;;;29.20;44.80;99990.25;128156;1098;22374;-74
2021/07/28 07:11:43;;;;;;;13.40;9.53;;;;;;;29.15;45.32;99993.85;128213;1095;22815;-75
2021/07/28 07:14:13;;;;;;;11.45;10.13;;;;;;;29.32;45.18;99985.10;128552;1095;22344;-75
2021/07/28 07:16:42;;;;;;;10.68;9.43;;;;;;;29.54;44.52;99987.13;128575;1095;22362;-75
2021/07/28 07:19:12;;;;;;;12.80;9.63;;;;;;;29.68;43.92;99987.95;128628;1095;22372;-74
2021/07/28 07:21:42;;;;;;;12.83;10.17;;;;;;;29.85;44.41;99978.35;128242;1095;24239;-75
2021/07/28 07:24:11;;;;;;;10.83;9.73;;;;;;;30.04;43.63;99981.75;128653;1095;23317;-75
2021/07/28 07:26:41;;;;;;;12.80;9.40;;;;;;;30.26;43.15;99975.56;128606;1095;22391;-74
2021/07/28 07:29:10;;;;;;;13.13;9.08;;;;;;;30.50;42.59;99982.64;128588;1095;22360;-78
2021/07/28 07:31:41;;;;;;;19.05;10.23;;;;;;;30.70;42.85;99979.41;128381;1095;22359;-74
2021/07/28 07:34:11;;;;;;;10.80;9.87;;;;;;;30.77;42.58;99979.00;128427;1095;22362;-74
2021/07/28 07:36:41;;;;;;;12.03;9.98;;;;;;;30.82;41.82;99973.39;128612;1093;22352;-75
2021/07/28 07:39:10;;;;;;;9.80;8.88;;;;;;;31.02;41.79;99981.04;128555;1095;22789;-74
2021/07/28 07:41:40;;;;;;;12.45;10.23;;;;;;;31.15;41.58;99974.68;128613;1094;23632;-74
2021/07/28 07:44:09;;;;;;;12.50;9.43;;;;;;;31.31;41.22;99966.89;128572;1095;24486;-74
2021/07/28 07:46:39;;;;;;;12.33;9.05;;;;;;;31.50;41.32;99963.94;128402;1095;24984;-74
2021/07/28 07:49:08;;;;;;;14.08;11.60;;;;;;;31.82;40.70;99965.45;128628;1095;22375;-74
2021/07/28 07:51:38;;;;;;;12.18;10.10;;;;;;;31.94;40.63;99973.04;128566;1095;24535;-74
2021/07/28 07:54:07;;;;;;;12.03;8.88;;;;;;;32.17;40.51;99970.97;128650;1093;22372;-75
2021/07/28 07:56:37;;;;;;;12.23;9.80;;;;;;;32.48;39.80;99975.47;128569;1093;22367;-75
2021/07/28 07:59:06;;;;;;;13.03;9.55;;;;;;;32.73;39.29;99971.10;128538;1095;22359;-75
2021/07/28 08:01:38;;;;;;;11.20;9.33;;;;;;;32.88;38.64;99965.09;128598;1094;22369;-74
2021/07/28 08:04:08;;;;;;;9.50;8.10;;;;;;;33.15;38.13;99972.10;128632;1095;22372;-75
2021/07/28 08:06:38;;;;;;;11.88;9.00;;;;;;;33.37;37.83;99962.84;128606;1094;22366;-75
2021/07/28 08:09:07;;;;;;;13.38;9.00;;;;;;;33.61;37.73;99970.45;128564;1095;22354;-75
2021/07/28 08:11:37;;;;;;;10.78;9.25;;;;;;;33.77;37.16;99965.20;128631;1093;22365;-74
2021/07/28 08:14:06;;;;;;;10.05;8.70;;;;;;;33.97;36.52;99960.88;128538;1093;22360;-75
2021/07/28 08:16:36;;;;;;;11.33;8.00;;;;;;;34.07;36.62;99956.96;128672;1093;24505;-74
2021/07/28 08:19:06;;;;;;;9.58;8.60;;;;;;;34.26;36.23;99959.23;128584;1095;22390;-75
2021/07/28 08:21:36;;;;;;;9.18;8.25;;;;;;;34.30;36.29;99958.20;128638;1093;22356;-75
2021/07/28 08:24:05;;;;;;;7.77;6.90;;;;;;;34.42;35.75;99958.27;128556;1095;24377;-74
2021/07/28 08:26:35;;;;;;;10.10;7.60;;;;;;;34.58;35.88;99958.44;128585;1095;22413;-74
2021/07/28 08:29:04;;;;;;;10.95;8.05;;;;;;;34.72;35.25;99960.87;128614;1095;22356;-74
2021/07/28 08:31:34;;;;;;;8.93;7.68;;;;;;;34.79;34.75;99958.39;128575;1095;22346;-74
2021/07/28 08:34:04;;;;;;;11.60;9.20;;;;;;;34.99;34.52;99953.97;128558;1095;22361;-75
2021/07/28 08:36:33;;;;;;;10.05;8.18;;;;;;;35.06;34.13;99951.48;128545;1093;23262;-75
2021/07/28 08:39:03;;;;;;;11.50;8.30;;;;;;;35.01;34.69;99948.91;128607;1093;22368;-75
2021/07/28 08:41:35;;;;;;;13.60;7.00;;;;;;;35.27;35.04;99948.63;128597;1095;22433;-74
2021/07/28 08:44:06;;;;;;;9.50;7.15;;;;;;;35.69;33.64;99942.89;128550;1095;22360;-75
2021/07/28 08:46:35;;;;;;;10.88;7.23;;;;;;;35.77;33.28;99944.70;128565;1095;22446;-74
2021/07/28 08:49:06;;;;;;;9.00;6.30;;;;;;;35.85;32.60;99945.70;128585;1094;22372;-75
2021/07/28 08:51:35;;;;;;;9.58;7.13;;;;;;;36.08;32.04;99959.75;128324;1095;24231;-75
2021/07/28 08:54:05;;;;;;;13.18;6.88;;;;;;;36.00;31.65;99947.73;128314;1095;22371;-75
2021/07/28 08:56:40;;;;;;;14.40;7.08;;;;;;;36.14;31.85;99946.56;128283;1094;22645;-75
2021/07/28 08:59:26;;;;;;;7.70;6.60;;;;;;;36.48;30.64;99945.94;128278;1095;24501;-76
2021/07/28 09:01:57;;;;;;;15.43;7.28;;;;;;;36.67;30.50;99941.74;128588;1095;22363;-75
2021/07/28 09:04:28;;;;;;;6.13;5.55;;;;;;;36.65;29.94;99944.83;128332;1095;22379;-75
2021/07/28 09:06:58;;;;;;;6.80;4.88;;;;;;;36.68;29.39;99941.38;128279;1095;22374;-75
2021/07/28 09:09:28;;;;;;;8.28;4.65;;;;;;;36.62;28.91;99944.74;128299;1095;22394;-75
2021/07/28 09:12:01;;;;;;;6.75;4.58;;;;;;;36.50;27.53;99943.67;128569;1093;22356;-75
2021/07/28 09:14:36;;;;;;;4.75;3.80;;;;;;;36.35;27.29;99946.34;128532;1095;22377;-74
2021/07/28 09:17:20;;;;;;;5.25;4.33;;;;;;;36.29;27.23;99938.37;128540;1095;22369;-74
2021/07/28 09:19:50;;;;;;;7.18;4.78;;;;;;;36.52;28.25;99946.05;128551;1095;24956;-75
2021/07/28 09:22:41;;;;;;;4.10;3.70;;;;;;;36.75;27.35;99946.27;128560;1095;22388;-75
2021/07/28 09:25:19;;;;;;;5.53;4.00;;;;;;;36.79;27.03;99944.43;128318;1095;22420;-75
2021/07/28 09:27:54;;;;;;;4.98;4.03;;;;;;;36.74;26.36;99948.22;128659;1093;22345;-75
2021/07/28 09:30:23;;;;;;;5.80;4.10;;;;;;;36.84;26.04;99941.39;128566;1095;22379;-75
2021/07/28 09:33:10;;;;;;;6.58;3.40;;;;;;;36.82;26.22;99938.19;128573;1095;22376;-76
2021/07/28 09:35:55;;;;;;;6.90;4.00;;;;;;;37.17;26.02;99938.30;128303;1095;22378;-76
2021/07/28 09:38:31;;;;;;;5.65;3.60;;;;;;;37.46;25.83;99939.01;128594;1095;22805;-76
2021/07/28 09:41:26;;;;;;;5.08;3.38;;;;;;;37.50;25.31;99936.33;128547;1095;22477;-77
2021/07/28 09:44:02;;;;;;;4.33;3.13;;;;;;;37.16;25.15;99930.41;128297;1095;22368;-77
2021/07/28 09:46:39;;;;;;;5.73;3.28;;;;;;;36.96;25.42;99927.55;128566;1095;22364;-76
2021/07/28 09:49:18;;;;;;;5.57;3.50;;;;;;;36.91;25.65;99927.02;128500;1095;22369;-75
2021/07/28 09:51:48;;;;;;;4.43;3.90;;;;;;;37.27;24.75;99923.19;128583;1095;22346;-76
2021/07/28 09:54:17;;;;;;;8.10;3.10;;;;;;;37.18;24.08;99922.58;128553;1095;22365;-75
2021/07/28 09:56:54;;;;;;;4.15;3.73;;;;;;;37.12;24.58;99915.73;128601;1095;22347;-76
2021/07/28 09:59:23;;;;;;;5.05;2.85;;;;;;;37.21;25.07;99919.11;128283;1095;24912;-76
2021/07/28 10:01:55;;;;;;;5.18;3.20;;;;;;;37.38;24.84;99918.72;128666;1095;22368;-76
2021/07/28 10:04:30;;;;;;;6.38;3.43;;;;;;;37.65;24.61;99919.73;128590;1094;22357;-76
2021/07/28 10:07:01;;;;;;;6.95;3.23;;;;;;;37.76;24.58;99903.44;128444;1095;22371;-77
2021/07/28 10:09:37;;;;;;;3.50;2.58;;;;;;;37.86;23.90;99900.11;128324;1095;22425;-76
2021/07/28 10:12:07;;;;;;;2.93;2.55;;;;;;;37.83;23.86;99891.77;128565;1095;22352;-76
2021/07/28 10:14:42;;;;;;;5.03;3.00;;;;;;;37.89;24.39;99904.10;128633;1095;22356;-77
2021/07/28 10:17:12;;;;;;;3.68;2.73;;;;;;;37.68;23.89;99888.69;128682;1093;22362;-77
2021/07/28 10:19:42;;;;;;;;;;;;;;;37.42;23.71;99883.80;128685;1093;23287;-77
2021/07/28 10:22:32;;;;;;;3.40;2.98;;;;;;;37.43;24.52;99882.63;128335;1095;21269;-76
2021/07/28 10:25:08;;;;;;;3.28;2.53;;;;;;;37.18;24.02;99893.08;128588;1095;22362;-77
2021/07/28 10:27:47;;;;;;;7.10;4.18;;;;;;;37.23;24.22;99886.52;128617;1095;24492;-75
2021/07/28 10:30:21;;;;;;;4.65;3.98;;;;;;;37.25;24.34;99886.94;128634;1095;22356;-77
2021/07/28 10:32:51;;;;;;;8.03;3.18;;;;;;;37.30;25.01;99888.63;128538;1095;22381;-77
2021/07/28 10:35:29;;;;;;;5.65;3.78;;;;;;;37.18;25.09;99886.77;128331;1095;22345;-76
2021/07/28 10:38:02;;;;;;;5.90;3.35;;;;;;;36.90;25.29;99892.39;128324;1095;22382;-77
2021/07/28 10:40:34;;;;;;;4.60;2.97;;;;;;;36.56;26.04;99891.16;128329;1095;22337;-77
2021/07/28 10:43:04;;;;;;;5.13;2.88;;;;;;;36.28;26.56;99892.75;128321;1095;24489;-77
2021/07/28 10:45:58;;;;;;;4.08;3.63;;;;;;;36.25;27.07;99895.41;128309;1095;22360;-78
2021/07/28 10:48:52;;;;;;;10.20;5.13;;;;;;;36.01;28.28;99882.58;128255;1095;24240;-75
2021/07/28 10:51:54;;;;;;;7.50;4.85;;;;;;;35.41;29.08;99871.37;128592;1095;22347;-74
2021/07/28 10:55:10;;;;;;;3.90;3.60;;;;;;;34.93;29.02;99883.17;128613;1093;22661;-75
2021/07/28 10:58:26;;;;;;;5.40;3.93;;;;;;;34.47;29.98;99877.71;128196;1098;22383;-75
2021/07/28 11:00:58;;;;;;;4.98;3.68;;;;;;;34.14;30.50;99886.75;127393;1103;22381;-74
2021/07/28 11:03:30;;;;;;;5.93;4.23;;;;;;;33.90;30.92;99873.73;127514;1105;22385;-74
2021/07/28 11:06:19;;;;;;;4.45;3.55;;;;;;;33.72;31.19;99874.99;127522;1105;22371;-75
2021/07/28 11:08:49;;;;;;;7.37;4.47;;;;;;;33.50;31.20;99867.93;127540;1105;22417;-75
2021/07/28 11:11:27;;;;;;;4.83;3.75;;;;;;;33.41;31.60;99869.89;127379;1104;22377;-75
2021/07/28 11:14:00;;;;;;;9.35;4.33;;;;;;;33.32;32.02;99871.88;127395;1103;22548;-75
2021/07/28 11:16:30;;;;;;;7.13;4.60;;;;;;;33.26;32.00;99865.81;127375;1104;22376;-74
2021/07/28 11:19:00;;;;;;;4.00;3.60;;;;;;;33.15;32.22;99861.83;127348;1105;22395;-75
2021/07/28 11:21:30;;;;;;;6.27;3.70;;;;;;;32.91;33.15;99868.69;127406;1104;24552;-75
2021/07/28 11:24:05;;;;;;;7.70;4.35;;;;;;;32.88;33.03;99854.87;127439;1105;22395;-75
2021/07/28 11:26:40;;;;;;;11.85;4.40;;;;;;;32.93;33.58;99854.70;127425;1105;22376;-75
2021/07/28 11:29:19;;;;;;;3.85;3.45;;;;;;;32.96;33.07;99856.80;127388;1104;22395;-75
2021/07/28 11:31:53;;;;;;;8.63;3.78;;;;;;;32.90;33.56;99863.56;127453;1104;22554;-74
2021/07/28 11:34:57;;;;;;;;;;;;;;;32.74;33.93;99861.36;127478;1101;22449;-75